sensor_id;sensor_type;location;lat;lon;timestamp;P1;durP1;ratioP1;P2;durP2;ratioP2
8556;SDS011;4316;53.840;10.762;2023-06-26T00:00:42;3.30;;;2.97;;
8556;SDS011;4316;53.840;10.762;2023-06-26T00:03:07;3.22;;;2.95;;
8556;SDS011;4316;53.840;10.762;2023-06-26T00:05:33;2.78;;;2.58;;
8556;SDS011;4316;53.840;10.762;2023-06-26T00:07:59;2.90;;;2.70;;
8556;SDS011;4316;53.840;10.762;2023-06-26T00:10:26;3.88;;;3.15;;
8556;SDS011;4316;53.840;10.762;2023-06-26T00:12:53;4.53;;;3.03;;
8556;SDS011;4316;53.840;10.762;2023-06-26T00:15:19;2.90;;;2.70;;
8556;SDS011;4316;53.840;10.762;2023-06-26T00:17:45;3.15;;;2.95;;
8556;SDS011;4316;53.840;10.762;2023-06-26T00:20:11;3.97;;;3.10;;
8556;SDS011;4316;53.840;10.762;2023-06-26T00:22:39;3.40;;;3.10;;
8556;SDS011;4316;53.840;10.762;2023-06-26T00:25:06;6.85;;;3.00;;
8556;SDS011;4316;53.840;10.762;2023-06-26T00:27:32;5.35;;;3.22;;
8556;SDS011;4316;53.840;10.762;2023-06-26T00:29:58;3.40;;;3.10;;
8556;SDS011;4316;53.840;10.762;2023-06-26T00:32:24;3.83;;;2.90;;
8556;SDS011;4316;53.840;10.762;2023-06-26T00:34:49;3.58;;;3.25;;
8556;SDS011;4316;53.840;10.762;2023-06-26T00:37:15;2.92;;;2.72;;
8556;SDS011;4316;53.840;10.762;2023-06-26T00:39:41;3.88;;;3.22;;
8556;SDS011;4316;53.840;10.762;2023-06-26T00:42:07;4.63;;;3.50;;
8556;SDS011;4316;53.840;10.762;2023-06-26T00:44:33;5.13;;;3.17;;
8556;SDS011;4316;53.840;10.762;2023-06-26T00:46:59;4.30;;;3.38;;
8556;SDS011;4316;53.840;10.762;2023-06-26T00:49:26;3.47;;;3.17;;
8556;SDS011;4316;53.840;10.762;2023-06-26T00:51:52;6.13;;;3.20;;
8556;SDS011;4316;53.840;10.762;2023-06-26T00:54:19;4.53;;;3.03;;
8556;SDS011;4316;53.840;10.762;2023-06-26T00:56:47;4.93;;;3.50;;
8556;SDS011;4316;53.840;10.762;2023-06-26T00:59:13;7.43;;;3.22;;
8556;SDS011;4316;53.840;10.762;2023-06-26T01:01:39;3.50;;;3.30;;
8556;SDS011;4316;53.840;10.762;2023-06-26T01:04:08;3.80;;;3.40;;
8556;SDS011;4316;53.840;10.762;2023-06-26T01:06:43;3.35;;;3.10;;
8556;SDS011;4316;53.840;10.762;2023-06-26T01:09:17;4.50;;;3.58;;
8556;SDS011;4316;53.840;10.762;2023-06-26T01:11:44;3.75;;;3.45;;
8556;SDS011;4316;53.840;10.762;2023-06-26T01:14:10;4.10;;;3.80;;
8556;SDS011;4316;53.840;10.762;2023-06-26T01:16:37;4.95;;;3.78;;
8556;SDS011;4316;53.840;10.762;2023-06-26T01:19:06;3.88;;;3.58;;
8556;SDS011;4316;53.840;10.762;2023-06-26T01:21:39;3.45;;;3.25;;
8556;SDS011;4316;53.840;10.762;2023-06-26T01:26:52;3.92;;;3.45;;
8556;SDS011;4316;53.840;10.762;2023-06-26T01:29:19;3.70;;;3.40;;
8556;SDS011;4316;53.840;10.762;2023-06-26T01:31:48;4.55;;;3.78;;
8556;SDS011;4316;53.840;10.762;2023-06-26T01:34:18;4.13;;;3.47;;
8556;SDS011;4316;53.840;10.762;2023-06-26T01:36:44;4.15;;;3.60;;
8556;SDS011;4316;53.840;10.762;2023-06-26T01:39:13;4.60;;;3.78;;
8556;SDS011;4316;53.840;10.762;2023-06-26T01:41:42;4.43;;;4.03;;
8556;SDS011;4316;53.840;10.762;2023-06-26T01:47:09;4.13;;;3.80;;
8556;SDS011;4316;53.840;10.762;2023-06-26T01:52:16;4.55;;;3.65;;
8556;SDS011;4316;53.840;10.762;2023-06-26T01:57:26;6.47;;;4.18;;
8556;SDS011;4316;53.840;10.762;2023-06-26T01:59:54;4.18;;;3.30;;
8556;SDS011;4316;53.840;10.762;2023-06-26T02:02:22;3.92;;;3.58;;
8556;SDS011;4316;53.840;10.762;2023-06-26T02:04:49;4.50;;;3.92;;
8556;SDS011;4316;53.840;10.762;2023-06-26T02:07:15;7.78;;;3.97;;
8556;SDS011;4316;53.840;10.762;2023-06-26T02:09:41;4.35;;;3.83;;
8556;SDS011;4316;53.840;10.762;2023-06-26T02:12:09;4.43;;;4.05;;
8556;SDS011;4316;53.840;10.762;2023-06-26T02:14:35;9.90;;;3.97;;
8556;SDS011;4316;53.840;10.762;2023-06-26T02:17:00;9.82;;;4.13;;
8556;SDS011;4316;53.840;10.762;2023-06-26T02:19:27;5.30;;;4.35;;
8556;SDS011;4316;53.840;10.762;2023-06-26T02:21:53;4.57;;;4.28;;
8556;SDS011;4316;53.840;10.762;2023-06-26T02:24:20;5.20;;;4.70;;
8556;SDS011;4316;53.840;10.762;2023-06-26T02:26:46;4.50;;;4.20;;
8556;SDS011;4316;53.840;10.762;2023-06-26T02:29:12;9.32;;;4.60;;
8556;SDS011;4316;53.840;10.762;2023-06-26T02:31:39;9.13;;;4.35;;
8556;SDS011;4316;53.840;10.762;2023-06-26T02:34:05;5.78;;;4.60;;
8556;SDS011;4316;53.840;10.762;2023-06-26T02:36:32;5.20;;;4.70;;
8556;SDS011;4316;53.840;10.762;2023-06-26T02:38:59;4.45;;;4.10;;
8556;SDS011;4316;53.840;10.762;2023-06-26T02:41:25;5.20;;;4.80;;
8556;SDS011;4316;53.840;10.762;2023-06-26T02:43:51;8.80;;;5.00;;
8556;SDS011;4316;53.840;10.762;2023-06-26T02:46:17;5.13;;;4.63;;
8556;SDS011;4316;53.840;10.762;2023-06-26T02:48:43;5.15;;;4.63;;
8556;SDS011;4316;53.840;10.762;2023-06-26T02:51:08;17.90;;;5.68;;
8556;SDS011;4316;53.840;10.762;2023-06-26T02:53:34;6.63;;;4.85;;
8556;SDS011;4316;53.840;10.762;2023-06-26T02:56:00;5.07;;;4.57;;
8556;SDS011;4316;53.840;10.762;2023-06-26T02:58:26;6.00;;;4.85;;
8556;SDS011;4316;53.840;10.762;2023-06-26T03:00:52;4.88;;;4.47;;
8556;SDS011;4316;53.840;10.762;2023-06-26T03:03:18;9.32;;;5.32;;
8556;SDS011;4316;53.840;10.762;2023-06-26T03:05:44;6.60;;;4.97;;
8556;SDS011;4316;53.840;10.762;2023-06-26T03:08:10;12.82;;;4.90;;
8556;SDS011;4316;53.840;10.762;2023-06-26T03:10:36;5.07;;;4.47;;
8556;SDS011;4316;53.840;10.762;2023-06-26T03:13:02;14.57;;;4.68;;
8556;SDS011;4316;53.840;10.762;2023-06-26T03:15:28;6.15;;;4.68;;
8556;SDS011;4316;53.840;10.762;2023-06-26T03:17:54;6.05;;;4.78;;
8556;SDS011;4316;53.840;10.762;2023-06-26T03:20:24;5.53;;;5.05;;
8556;SDS011;4316;53.840;10.762;2023-06-26T03:22:58;5.63;;;4.85;;
8556;SDS011;4316;53.840;10.762;2023-06-26T03:25:24;6.15;;;4.72;;
8556;SDS011;4316;53.840;10.762;2023-06-26T03:27:57;5.15;;;4.68;;
8556;SDS011;4316;53.840;10.762;2023-06-26T03:30:24;4.93;;;4.50;;
8556;SDS011;4316;53.840;10.762;2023-06-26T03:32:51;10.32;;;5.65;;
8556;SDS011;4316;53.840;10.762;2023-06-26T03:35:17;5.82;;;5.25;;
8556;SDS011;4316;53.840;10.762;2023-06-26T03:37:43;5.50;;;4.95;;
8556;SDS011;4316;53.840;10.762;2023-06-26T03:40:09;5.30;;;4.90;;
8556;SDS011;4316;53.840;10.762;2023-06-26T03:42:36;5.03;;;4.63;;
8556;SDS011;4316;53.840;10.762;2023-06-26T03:45:02;7.88;;;4.63;;
8556;SDS011;4316;53.840;10.762;2023-06-26T03:47:29;7.05;;;5.40;;
8556;SDS011;4316;53.840;10.762;2023-06-26T03:49:55;7.63;;;5.68;;
8556;SDS011;4316;53.840;10.762;2023-06-26T03:52:21;5.40;;;4.90;;
8556;SDS011;4316;53.840;10.762;2023-06-26T03:54:46;7.15;;;5.05;;
8556;SDS011;4316;53.840;10.762;2023-06-26T03:57:15;5.68;;;5.15;;
8556;SDS011;4316;53.840;10.762;2023-06-26T03:59:41;6.20;;;5.15;;
8556;SDS011;4316;53.840;10.762;2023-06-26T04:02:06;8.43;;;5.65;;
8556;SDS011;4316;53.840;10.762;2023-06-26T04:04:32;6.00;;;4.95;;
8556;SDS011;4316;53.840;10.762;2023-06-26T04:06:58;7.18;;;5.45;;
8556;SDS011;4316;53.840;10.762;2023-06-26T04:09:24;5.97;;;5.40;;
8556;SDS011;4316;53.840;10.762;2023-06-26T04:11:51;5.68;;;5.25;;
8556;SDS011;4316;53.840;10.762;2023-06-26T04:14:17;5.53;;;5.07;;
8556;SDS011;4316;53.840;10.762;2023-06-26T04:16:43;5.85;;;5.28;;
8556;SDS011;4316;53.840;10.762;2023-06-26T04:19:08;6.60;;;5.53;;
8556;SDS011;4316;53.840;10.762;2023-06-26T04:21:35;9.45;;;6.57;;
8556;SDS011;4316;53.840;10.762;2023-06-26T04:24:01;7.13;;;6.38;;
8556;SDS011;4316;53.840;10.762;2023-06-26T04:26:26;9.35;;;6.53;;
8556;SDS011;4316;53.840;10.762;2023-06-26T04:28:53;7.70;;;6.00;;
8556;SDS011;4316;53.840;10.762;2023-06-26T04:31:19;12.88;;;8.00;;
8556;SDS011;4316;53.840;10.762;2023-06-26T04:33:45;12.93;;;7.45;;
8556;SDS011;4316;53.840;10.762;2023-06-26T04:36:16;8.30;;;6.05;;
8556;SDS011;4316;53.840;10.762;2023-06-26T04:38:42;6.47;;;5.88;;
8556;SDS011;4316;53.840;10.762;2023-06-26T04:41:08;9.30;;;6.63;;
8556;SDS011;4316;53.840;10.762;2023-06-26T04:43:34;6.63;;;5.95;;
8556;SDS011;4316;53.840;10.762;2023-06-26T04:46:02;9.77;;;7.70;;
8556;SDS011;4316;53.840;10.762;2023-06-26T04:48:27;6.30;;;5.60;;
8556;SDS011;4316;53.840;10.762;2023-06-26T04:50:54;7.88;;;7.10;;
8556;SDS011;4316;53.840;10.762;2023-06-26T04:53:21;6.05;;;5.53;;
8556;SDS011;4316;53.840;10.762;2023-06-26T04:55:48;7.63;;;5.90;;
8556;SDS011;4316;53.840;10.762;2023-06-26T04:58:14;6.43;;;5.82;;
8556;SDS011;4316;53.840;10.762;2023-06-26T05:00:40;6.07;;;5.57;;
8556;SDS011;4316;53.840;10.762;2023-06-26T05:03:07;8.25;;;5.25;;
8556;SDS011;4316;53.840;10.762;2023-06-26T05:05:34;10.18;;;5.45;;
8556;SDS011;4316;53.840;10.762;2023-06-26T05:08:12;6.97;;;5.78;;
8556;SDS011;4316;53.840;10.762;2023-06-26T05:10:42;7.10;;;6.45;;
8556;SDS011;4316;53.840;10.762;2023-06-26T05:13:08;7.63;;;6.50;;
8556;SDS011;4316;53.840;10.762;2023-06-26T05:15:34;10.00;;;5.75;;
8556;SDS011;4316;53.840;10.762;2023-06-26T05:18:00;6.53;;;5.93;;
8556;SDS011;4316;53.840;10.762;2023-06-26T05:20:26;10.18;;;6.57;;
8556;SDS011;4316;53.840;10.762;2023-06-26T05:22:52;17.38;;;5.75;;
8556;SDS011;4316;53.840;10.762;2023-06-26T05:25:18;6.00;;;5.30;;
8556;SDS011;4316;53.840;10.762;2023-06-26T05:27:46;5.63;;;4.75;;
8556;SDS011;4316;53.840;10.762;2023-06-26T05:30:13;4.95;;;4.55;;
8556;SDS011;4316;53.840;10.762;2023-06-26T05:32:39;6.28;;;5.20;;
8556;SDS011;4316;53.840;10.762;2023-06-26T05:35:06;5.88;;;5.35;;
8556;SDS011;4316;53.840;10.762;2023-06-26T05:37:33;9.15;;;4.95;;
8556;SDS011;4316;53.840;10.762;2023-06-26T05:39:59;11.45;;;5.40;;
8556;SDS011;4316;53.840;10.762;2023-06-26T05:42:26;11.05;;;4.93;;
8556;SDS011;4316;53.840;10.762;2023-06-26T05:44:56;5.60;;;4.97;;
8556;SDS011;4316;53.840;10.762;2023-06-26T05:47:21;5.10;;;4.70;;
8556;SDS011;4316;53.840;10.762;2023-06-26T05:49:47;6.05;;;4.30;;
8556;SDS011;4316;53.840;10.762;2023-06-26T05:52:13;10.68;;;4.80;;
8556;SDS011;4316;53.840;10.762;2023-06-26T05:54:40;7.22;;;4.68;;
8556;SDS011;4316;53.840;10.762;2023-06-26T05:57:05;5.30;;;4.68;;
8556;SDS011;4316;53.840;10.762;2023-06-26T05:59:31;9.57;;;5.22;;
8556;SDS011;4316;53.840;10.762;2023-06-26T06:01:57;4.72;;;4.32;;
8556;SDS011;4316;53.840;10.762;2023-06-26T06:04:23;4.95;;;4.10;;
8556;SDS011;4316;53.840;10.762;2023-06-26T06:06:49;4.50;;;4.10;;
8556;SDS011;4316;53.840;10.762;2023-06-26T06:09:15;8.70;;;4.70;;
8556;SDS011;4316;53.840;10.762;2023-06-26T06:11:41;7.43;;;4.35;;
8556;SDS011;4316;53.840;10.762;2023-06-26T06:14:06;7.90;;;4.60;;
8556;SDS011;4316;53.840;10.762;2023-06-26T06:16:33;6.97;;;4.05;;
8556;SDS011;4316;53.840;10.762;2023-06-26T06:18:58;4.60;;;4.18;;
8556;SDS011;4316;53.840;10.762;2023-06-26T06:21:24;5.75;;;4.32;;
8556;SDS011;4316;53.840;10.762;2023-06-26T06:23:50;4.40;;;4.10;;
8556;SDS011;4316;53.840;10.762;2023-06-26T06:26:15;6.97;;;4.20;;
8556;SDS011;4316;53.840;10.762;2023-06-26T06:28:41;4.85;;;4.20;;
8556;SDS011;4316;53.840;10.762;2023-06-26T06:31:07;4.97;;;4.18;;
8556;SDS011;4316;53.840;10.762;2023-06-26T06:33:32;4.80;;;4.40;;
8556;SDS011;4316;53.840;10.762;2023-06-26T06:35:59;5.88;;;4.30;;
8556;SDS011;4316;53.840;10.762;2023-06-26T06:38:25;4.53;;;4.10;;
8556;SDS011;4316;53.840;10.762;2023-06-26T06:40:50;6.13;;;4.20;;
8556;SDS011;4316;53.840;10.762;2023-06-26T06:43:16;10.35;;;4.18;;
8556;SDS011;4316;53.840;10.762;2023-06-26T06:45:42;4.18;;;3.90;;
8556;SDS011;4316;53.840;10.762;2023-06-26T06:48:08;5.57;;;3.92;;
8556;SDS011;4316;53.840;10.762;2023-06-26T06:50:33;6.45;;;3.97;;
8556;SDS011;4316;53.840;10.762;2023-06-26T06:52:59;3.72;;;3.42;;
8556;SDS011;4316;53.840;10.762;2023-06-26T06:55:25;4.55;;;4.15;;
8556;SDS011;4316;53.840;10.762;2023-06-26T06:57:50;4.40;;;4.00;;
8556;SDS011;4316;53.840;10.762;2023-06-26T07:00:17;6.72;;;4.00;;
8556;SDS011;4316;53.840;10.762;2023-06-26T07:02:43;8.77;;;4.80;;
8556;SDS011;4316;53.840;10.762;2023-06-26T07:05:10;7.10;;;4.03;;
8556;SDS011;4316;53.840;10.762;2023-06-26T07:07:37;6.97;;;4.30;;
8556;SDS011;4316;53.840;10.762;2023-06-26T07:12:29;4.28;;;3.55;;
8556;SDS011;4316;53.840;10.762;2023-06-26T07:14:56;4.18;;;3.78;;
8556;SDS011;4316;53.840;10.762;2023-06-26T07:17:22;5.57;;;3.97;;
8556;SDS011;4316;53.840;10.762;2023-06-26T07:19:48;4.45;;;3.80;;
8556;SDS011;4316;53.840;10.762;2023-06-26T07:22:14;5.07;;;4.00;;
8556;SDS011;4316;53.840;10.762;2023-06-26T07:24:40;5.63;;;3.92;;
8556;SDS011;4316;53.840;10.762;2023-06-26T07:27:06;7.75;;;4.00;;
8556;SDS011;4316;53.840;10.762;2023-06-26T07:29:32;5.03;;;3.83;;
8556;SDS011;4316;53.840;10.762;2023-06-26T07:31:58;4.95;;;4.03;;
8556;SDS011;4316;53.840;10.762;2023-06-26T07:34:24;4.93;;;3.50;;
8556;SDS011;4316;53.840;10.762;2023-06-26T07:36:49;4.60;;;4.10;;
8556;SDS011;4316;53.840;10.762;2023-06-26T07:39:15;7.32;;;3.80;;
8556;SDS011;4316;53.840;10.762;2023-06-26T07:41:41;4.68;;;3.70;;
8556;SDS011;4316;53.840;10.762;2023-06-26T07:44:06;4.30;;;3.72;;
8556;SDS011;4316;53.840;10.762;2023-06-26T07:46:32;4.30;;;3.60;;
8556;SDS011;4316;53.840;10.762;2023-06-26T07:48:58;4.25;;;3.67;;
8556;SDS011;4316;53.840;10.762;2023-06-26T07:51:24;8.00;;;3.47;;
8556;SDS011;4316;53.840;10.762;2023-06-26T07:53:49;4.53;;;3.80;;
8556;SDS011;4316;53.840;10.762;2023-06-26T07:56:15;8.38;;;4.13;;
8556;SDS011;4316;53.840;10.762;2023-06-26T07:58:41;5.40;;;4.03;;
8556;SDS011;4316;53.840;10.762;2023-06-26T08:01:06;6.70;;;3.90;;
8556;SDS011;4316;53.840;10.762;2023-06-26T08:03:32;4.05;;;3.75;;
8556;SDS011;4316;53.840;10.762;2023-06-26T08:05:58;4.45;;;3.92;;
8556;SDS011;4316;53.840;10.762;2023-06-26T08:08:23;6.85;;;4.40;;
8556;SDS011;4316;53.840;10.762;2023-06-26T08:10:49;8.05;;;3.80;;
8556;SDS011;4316;53.840;10.762;2023-06-26T08:13:15;6.68;;;4.22;;
8556;SDS011;4316;53.840;10.762;2023-06-26T08:15:41;6.32;;;4.28;;
8556;SDS011;4316;53.840;10.762;2023-06-26T08:18:06;5.82;;;4.50;;
8556;SDS011;4316;53.840;10.762;2023-06-26T08:20:32;4.35;;;4.05;;
8556;SDS011;4316;53.840;10.762;2023-06-26T08:23:00;4.80;;;4.13;;
8556;SDS011;4316;53.840;10.762;2023-06-26T08:25:26;3.80;;;3.53;;
8556;SDS011;4316;53.840;10.762;2023-06-26T08:27:52;9.70;;;4.10;;
8556;SDS011;4316;53.840;10.762;2023-06-26T08:30:19;7.60;;;3.70;;
8556;SDS011;4316;53.840;10.762;2023-06-26T08:32:44;10.25;;;3.80;;
8556;SDS011;4316;53.840;10.762;2023-06-26T08:35:10;6.88;;;3.95;;
8556;SDS011;4316;53.840;10.762;2023-06-26T08:37:36;5.55;;;4.00;;
8556;SDS011;4316;53.840;10.762;2023-06-26T08:40:02;7.35;;;4.28;;
8556;SDS011;4316;53.840;10.762;2023-06-26T08:42:29;4.03;;;3.70;;
8556;SDS011;4316;53.840;10.762;2023-06-26T08:44:54;13.70;;;4.38;;
8556;SDS011;4316;53.840;10.762;2023-06-26T08:47:20;4.95;;;4.55;;
8556;SDS011;4316;53.840;10.762;2023-06-26T08:49:49;8.30;;;3.75;;
8556;SDS011;4316;53.840;10.762;2023-06-26T08:52:23;4.70;;;4.05;;
8556;SDS011;4316;53.840;10.762;2023-06-26T08:54:54;6.78;;;3.90;;
8556;SDS011;4316;53.840;10.762;2023-06-26T08:57:22;7.13;;;4.07;;
8556;SDS011;4316;53.840;10.762;2023-06-26T08:59:49;6.10;;;4.05;;
8556;SDS011;4316;53.840;10.762;2023-06-26T09:02:15;4.30;;;3.90;;
8556;SDS011;4316;53.840;10.762;2023-06-26T09:04:41;5.68;;;3.83;;
8556;SDS011;4316;53.840;10.762;2023-06-26T09:07:07;6.18;;;4.00;;
8556;SDS011;4316;53.840;10.762;2023-06-26T09:09:33;9.10;;;3.80;;
8556;SDS011;4316;53.840;10.762;2023-06-26T09:11:59;5.65;;;4.00;;
8556;SDS011;4316;53.840;10.762;2023-06-26T09:14:26;7.28;;;4.15;;
8556;SDS011;4316;53.840;10.762;2023-06-26T09:16:52;7.70;;;4.30;;
8556;SDS011;4316;53.840;10.762;2023-06-26T09:19:18;4.38;;;3.92;;
8556;SDS011;4316;53.840;10.762;2023-06-26T09:21:44;20.00;;;4.25;;
8556;SDS011;4316;53.840;10.762;2023-06-26T09:24:10;5.20;;;4.00;;
8556;SDS011;4316;53.840;10.762;2023-06-26T09:26:36;5.45;;;4.07;;
8556;SDS011;4316;53.840;10.762;2023-06-26T09:29:04;9.85;;;4.50;;
8556;SDS011;4316;53.840;10.762;2023-06-26T09:31:32;7.78;;;4.13;;
8556;SDS011;4316;53.840;10.762;2023-06-26T09:33:58;5.65;;;4.35;;
8556;SDS011;4316;53.840;10.762;2023-06-26T09:36:27;5.18;;;4.75;;
8556;SDS011;4316;53.840;10.762;2023-06-26T09:38:54;6.05;;;4.25;;
8556;SDS011;4316;53.840;10.762;2023-06-26T09:41:20;5.63;;;4.40;;
8556;SDS011;4316;53.840;10.762;2023-06-26T09:43:46;7.30;;;4.05;;
8556;SDS011;4316;53.840;10.762;2023-06-26T09:46:17;9.40;;;4.75;;
8556;SDS011;4316;53.840;10.762;2023-06-26T09:48:57;7.95;;;4.40;;
8556;SDS011;4316;53.840;10.762;2023-06-26T09:51:33;8.88;;;4.25;;
8556;SDS011;4316;53.840;10.762;2023-06-26T09:54:00;4.65;;;4.25;;
8556;SDS011;4316;53.840;10.762;2023-06-26T09:56:27;7.78;;;4.40;;
8556;SDS011;4316;53.840;10.762;2023-06-26T09:58:55;9.30;;;4.20;;
8556;SDS011;4316;53.840;10.762;2023-06-26T10:01:22;4.68;;;4.07;;
8556;SDS011;4316;53.840;10.762;2023-06-26T10:03:48;6.43;;;3.88;;
8556;SDS011;4316;53.840;10.762;2023-06-26T10:06:14;4.80;;;4.32;;
8556;SDS011;4316;53.840;10.762;2023-06-26T10:08:44;6.00;;;4.18;;
8556;SDS011;4316;53.840;10.762;2023-06-26T10:11:11;4.85;;;4.32;;
8556;SDS011;4316;53.840;10.762;2023-06-26T10:13:42;4.60;;;4.20;;
8556;SDS011;4316;53.840;10.762;2023-06-26T10:16:11;4.80;;;4.30;;
8556;SDS011;4316;53.840;10.762;2023-06-26T10:18:41;7.40;;;4.90;;
8556;SDS011;4316;53.840;10.762;2023-06-26T10:21:08;9.38;;;4.53;;
8556;SDS011;4316;53.840;10.762;2023-06-26T10:23:36;5.30;;;4.80;;
8556;SDS011;4316;53.840;10.762;2023-06-26T10:26:05;7.72;;;5.10;;
8556;SDS011;4316;53.840;10.762;2023-06-26T10:28:33;8.43;;;4.82;;
8556;SDS011;4316;53.840;10.762;2023-06-26T10:31:01;12.02;;;5.38;;
8556;SDS011;4316;53.840;10.762;2023-06-26T10:33:29;19.25;;;5.82;;
8556;SDS011;4316;53.840;10.762;2023-06-26T10:36:10;24.35;;;7.18;;
8556;SDS011;4316;53.840;10.762;2023-06-26T10:38:48;18.88;;;7.18;;
8556;SDS011;4316;53.840;10.762;2023-06-26T10:41:25;18.55;;;6.65;;
8556;SDS011;4316;53.840;10.762;2023-06-26T10:46:52;10.45;;;6.43;;
8556;SDS011;4316;53.840;10.762;2023-06-26T10:49:19;14.27;;;4.95;;
8556;SDS011;4316;53.840;10.762;2023-06-26T10:51:49;18.35;;;5.28;;
8556;SDS011;4316;53.840;10.762;2023-06-26T10:54:19;8.95;;;4.90;;
8556;SDS011;4316;53.840;10.762;2023-06-26T10:56:54;6.97;;;4.10;;
8556;SDS011;4316;53.840;10.762;2023-06-26T10:59:26;15.82;;;4.82;;
8556;SDS011;4316;53.840;10.762;2023-06-26T11:01:57;6.03;;;4.07;;
8556;SDS011;4316;53.840;10.762;2023-06-26T11:07:14;10.30;;;4.22;;
8556;SDS011;4316;53.840;10.762;2023-06-26T11:12:50;11.38;;;4.60;;
8556;SDS011;4316;53.840;10.762;2023-06-26T11:15:19;7.90;;;4.32;;
8556;SDS011;4316;53.840;10.762;2023-06-26T11:17:45;11.15;;;4.38;;
8556;SDS011;4316;53.840;10.762;2023-06-26T11:20:14;20.27;;;5.13;;
8556;SDS011;4316;53.840;10.762;2023-06-26T11:22:42;10.93;;;5.22;;
8556;SDS011;4316;53.840;10.762;2023-06-26T11:25:08;15.25;;;5.63;;
8556;SDS011;4316;53.840;10.762;2023-06-26T11:30:08;9.43;;;5.00;;
8556;SDS011;4316;53.840;10.762;2023-06-26T11:32:38;5.28;;;4.45;;
8556;SDS011;4316;53.840;10.762;2023-06-26T11:35:04;13.05;;;4.63;;
8556;SDS011;4316;53.840;10.762;2023-06-26T11:37:31;5.78;;;3.95;;
8556;SDS011;4316;53.840;10.762;2023-06-26T11:39:57;5.43;;;3.67;;
8556;SDS011;4316;53.840;10.762;2023-06-26T11:42:23;6.03;;;3.58;;
8556;SDS011;4316;53.840;10.762;2023-06-26T11:44:50;5.03;;;3.42;;
8556;SDS011;4316;53.840;10.762;2023-06-26T11:47:18;13.35;;;5.00;;
8556;SDS011;4316;53.840;10.762;2023-06-26T11:49:45;7.80;;;3.60;;
8556;SDS011;4316;53.840;10.762;2023-06-26T11:52:12;9.75;;;4.05;;
8556;SDS011;4316;53.840;10.762;2023-06-26T11:54:38;6.55;;;4.28;;
8556;SDS011;4316;53.840;10.762;2023-06-26T11:57:04;6.32;;;3.90;;
8556;SDS011;4316;53.840;10.762;2023-06-26T11:59:40;4.88;;;3.92;;
8556;SDS011;4316;53.840;10.762;2023-06-26T12:02:10;6.55;;;4.95;;
8556;SDS011;4316;53.840;10.762;2023-06-26T12:04:38;10.02;;;4.93;;
8556;SDS011;4316;53.840;10.762;2023-06-26T12:07:07;8.63;;;5.03;;
8556;SDS011;4316;53.840;10.762;2023-06-26T12:09:41;9.00;;;5.50;;
8556;SDS011;4316;53.840;10.762;2023-06-26T12:12:10;10.52;;;5.60;;
8556;SDS011;4316;53.840;10.762;2023-06-26T12:14:36;7.45;;;5.10;;
8556;SDS011;4316;53.840;10.762;2023-06-26T12:17:10;12.40;;;5.75;;
8556;SDS011;4316;53.840;10.762;2023-06-26T12:19:46;7.72;;;5.38;;
8556;SDS011;4316;53.840;10.762;2023-06-26T12:22:16;8.57;;;5.60;;
8556;SDS011;4316;53.840;10.762;2023-06-26T12:24:43;13.65;;;6.30;;
8556;SDS011;4316;53.840;10.762;2023-06-26T12:27:11;11.60;;;6.03;;
8556;SDS011;4316;53.840;10.762;2023-06-26T12:29:39;16.15;;;6.25;;
8556;SDS011;4316;53.840;10.762;2023-06-26T12:32:09;11.95;;;5.93;;
8556;SDS011;4316;53.840;10.762;2023-06-26T12:34:36;8.68;;;5.80;;
8556;SDS011;4316;53.840;10.762;2023-06-26T12:37:04;10.55;;;5.50;;
8556;SDS011;4316;53.840;10.762;2023-06-26T12:39:51;9.73;;;4.63;;
8556;SDS011;4316;53.840;10.762;2023-06-26T12:42:19;13.57;;;5.55;;
8556;SDS011;4316;53.840;10.762;2023-06-26T12:44:48;12.82;;;5.28;;
8556;SDS011;4316;53.840;10.762;2023-06-26T12:47:15;16.52;;;4.10;;
8556;SDS011;4316;53.840;10.762;2023-06-26T12:49:42;9.48;;;4.15;;
8556;SDS011;4316;53.840;10.762;2023-06-26T12:52:13;6.78;;;3.15;;
8556;SDS011;4316;53.840;10.762;2023-06-26T12:54:41;10.50;;;3.55;;
8556;SDS011;4316;53.840;10.762;2023-06-26T12:57:08;20.42;;;2.70;;
8556;SDS011;4316;53.840;10.762;2023-06-26T12:59:36;8.57;;;2.45;;
8556;SDS011;4316;53.840;10.762;2023-06-26T13:02:02;6.80;;;2.50;;
8556;SDS011;4316;53.840;10.762;2023-06-26T13:04:29;17.83;;;2.53;;
8556;SDS011;4316;53.840;10.762;2023-06-26T13:06:55;17.90;;;2.35;;
8556;SDS011;4316;53.840;10.762;2023-06-26T13:09:21;6.40;;;2.20;;
8556;SDS011;4316;53.840;10.762;2023-06-26T13:11:49;11.95;;;2.15;;
8556;SDS011;4316;53.840;10.762;2023-06-26T13:14:15;6.95;;;2.20;;
8556;SDS011;4316;53.840;10.762;2023-06-26T13:16:40;4.95;;;2.05;;
8556;SDS011;4316;53.840;10.762;2023-06-26T13:19:06;7.85;;;2.55;;
8556;SDS011;4316;53.840;10.762;2023-06-26T13:21:33;13.52;;;2.42;;
8556;SDS011;4316;53.840;10.762;2023-06-26T13:23:59;7.90;;;2.17;;
8556;SDS011;4316;53.840;10.762;2023-06-26T13:26:26;8.73;;;2.53;;
8556;SDS011;4316;53.840;10.762;2023-06-26T13:28:53;5.32;;;2.00;;
8556;SDS011;4316;53.840;10.762;2023-06-26T13:31:20;6.93;;;2.30;;
8556;SDS011;4316;53.840;10.762;2023-06-26T13:33:46;8.18;;;2.10;;
8556;SDS011;4316;53.840;10.762;2023-06-26T13:36:16;8.27;;;2.85;;
8556;SDS011;4316;53.840;10.762;2023-06-26T13:38:41;5.70;;;2.25;;
8556;SDS011;4316;53.840;10.762;2023-06-26T13:41:07;5.60;;;1.90;;
8556;SDS011;4316;53.840;10.762;2023-06-26T13:43:33;3.42;;;1.83;;
8556;SDS011;4316;53.840;10.762;2023-06-26T13:45:59;8.18;;;2.58;;
8556;SDS011;4316;53.840;10.762;2023-06-26T13:48:25;10.77;;;2.38;;
8556;SDS011;4316;53.840;10.762;2023-06-26T13:50:51;12.18;;;2.47;;
8556;SDS011;4316;53.840;10.762;2023-06-26T13:53:17;4.90;;;1.83;;
8556;SDS011;4316;53.840;10.762;2023-06-26T13:55:44;9.18;;;2.25;;
8556;SDS011;4316;53.840;10.762;2023-06-26T13:58:10;8.68;;;2.42;;
8556;SDS011;4316;53.840;10.762;2023-06-26T14:00:36;8.60;;;1.95;;
8556;SDS011;4316;53.840;10.762;2023-06-26T14:03:03;7.88;;;2.20;;
8556;SDS011;4316;53.840;10.762;2023-06-26T14:05:32;4.30;;;1.88;;
8556;SDS011;4316;53.840;10.762;2023-06-26T14:07:59;7.80;;;2.03;;
8556;SDS011;4316;53.840;10.762;2023-06-26T14:10:28;14.02;;;1.92;;
8556;SDS011;4316;53.840;10.762;2023-06-26T14:12:53;4.40;;;1.77;;
8556;SDS011;4316;53.840;10.762;2023-06-26T14:15:19;7.45;;;1.80;;
8556;SDS011;4316;53.840;10.762;2023-06-26T14:17:45;6.80;;;1.88;;
8556;SDS011;4316;53.840;10.762;2023-06-26T14:20:12;6.30;;;1.85;;
8556;SDS011;4316;53.840;10.762;2023-06-26T14:22:39;5.97;;;1.92;;
8556;SDS011;4316;53.840;10.762;2023-06-26T14:25:06;4.85;;;1.67;;
8556;SDS011;4316;53.840;10.762;2023-06-26T14:27:36;4.85;;;1.58;;
8556;SDS011;4316;53.840;10.762;2023-06-26T14:30:03;10.00;;;1.80;;
8556;SDS011;4316;53.840;10.762;2023-06-26T14:32:29;8.32;;;2.22;;
8556;SDS011;4316;53.840;10.762;2023-06-26T14:34:55;8.02;;;1.95;;
8556;SDS011;4316;53.840;10.762;2023-06-26T14:37:21;3.33;;;1.58;;
8556;SDS011;4316;53.840;10.762;2023-06-26T14:39:47;6.03;;;1.70;;
8556;SDS011;4316;53.840;10.762;2023-06-26T14:42:13;6.05;;;1.70;;
8556;SDS011;4316;53.840;10.762;2023-06-26T14:44:39;5.03;;;1.52;;
8556;SDS011;4316;53.840;10.762;2023-06-26T14:47:04;10.65;;;1.80;;
8556;SDS011;4316;53.840;10.762;2023-06-26T14:49:30;3.65;;;1.30;;
8556;SDS011;4316;53.840;10.762;2023-06-26T14:51:56;4.72;;;1.55;;
8556;SDS011;4316;53.840;10.762;2023-06-26T14:54:22;4.45;;;1.20;;
8556;SDS011;4316;53.840;10.762;2023-06-26T14:56:47;5.20;;;1.30;;
8556;SDS011;4316;53.840;10.762;2023-06-26T14:59:13;7.68;;;1.65;;
8556;SDS011;4316;53.840;10.762;2023-06-26T15:01:39;10.45;;;1.85;;
8556;SDS011;4316;53.840;10.762;2023-06-26T15:04:05;6.32;;;1.50;;
8556;SDS011;4316;53.840;10.762;2023-06-26T15:06:32;2.30;;;1.50;;
8556;SDS011;4316;53.840;10.762;2023-06-26T15:08:58;4.65;;;1.52;;
8556;SDS011;4316;53.840;10.762;2023-06-26T15:11:24;4.30;;;1.52;;
8556;SDS011;4316;53.840;10.762;2023-06-26T15:13:50;3.13;;;1.45;;
8556;SDS011;4316;53.840;10.762;2023-06-26T15:16:16;4.50;;;1.92;;
8556;SDS011;4316;53.840;10.762;2023-06-26T15:18:42;7.03;;;1.13;;
8556;SDS011;4316;53.840;10.762;2023-06-26T15:21:07;3.15;;;1.70;;
8556;SDS011;4316;53.840;10.762;2023-06-26T15:23:33;4.15;;;1.67;;